createdAt,value
2023-05-13T00:00:28.771Z,1008.79
2023-05-13T00:01:28.768Z,1008.8
2023-05-13T00:02:28.802Z,1008.78
2023-05-13T00:03:28.947Z,1008.79
2023-05-13T00:04:28.765Z,1008.81
2023-05-13T00:05:28.772Z,1008.82
2023-05-13T00:06:28.814Z,1008.82
2023-05-13T00:07:28.770Z,1008.82
2023-05-13T00:08:30.509Z,1008.79
2023-05-13T00:09:34.069Z,1008.77
2023-05-13T00:10:36.269Z,1008.76
2023-05-13T00:12:28.810Z,1008.75
2023-05-13T00:13:28.985Z,1008.73
2023-05-13T00:14:28.792Z,1008.76
2023-05-13T00:15:28.762Z,1008.77
2023-05-13T00:16:28.956Z,1008.77
2023-05-13T00:17:28.771Z,1008.76
2023-05-13T00:18:28.794Z,1008.73
2023-05-13T00:19:28.846Z,1008.72
2023-05-13T00:20:28.773Z,1008.72
2023-05-13T00:21:28.775Z,1008.7
2023-05-13T00:22:28.886Z,1008.7
2023-05-13T00:23:28.767Z,1008.73
2023-05-13T00:24:28.761Z,1008.7
2023-05-13T00:25:28.818Z,1008.74
2023-05-13T00:26:28.775Z,1008.75
2023-05-13T00:27:28.774Z,1008.72
2023-05-13T00:28:28.771Z,1008.7
2023-05-13T00:29:30.669Z,1008.71
2023-05-13T00:30:34.223Z,1008.67
2023-05-13T00:31:36.505Z,1008.71
2023-05-13T00:33:28.792Z,1008.69
2023-05-13T00:34:28.772Z,1008.71
2023-05-13T00:35:28.829Z,1008.73
2023-05-13T00:36:29.018Z,1008.74
2023-05-13T00:37:28.769Z,1008.75
2023-05-13T00:38:28.787Z,1008.75
2023-05-13T00:39:28.773Z,1008.75
2023-05-13T00:40:28.777Z,1008.75
2023-05-13T00:41:28.780Z,1008.76
2023-05-13T00:42:28.774Z,1008.76
2023-05-13T00:43:28.851Z,1008.76
2023-05-13T00:44:28.774Z,1008.76
2023-05-13T00:45:28.825Z,1008.82
2023-05-13T00:46:28.862Z,1008.81
2023-05-13T00:47:28.895Z,1008.82
2023-05-13T00:48:28.877Z,1008.81
2023-05-13T00:49:28.770Z,1008.83
2023-05-13T00:50:30.724Z,1008.83
2023-05-13T00:51:33.821Z,1008.86
2023-05-13T00:52:36.480Z,1008.86
2023-05-13T00:54:28.780Z,1008.85
2023-05-13T00:55:28.760Z,1008.86
2023-05-13T00:56:28.774Z,1008.83
2023-05-13T00:57:28.790Z,1008.87
2023-05-13T00:58:28.772Z,1008.86
2023-05-13T00:59:28.776Z,1008.84
2023-05-13T01:00:28.772Z,1008.85
2023-05-13T01:01:28.788Z,1008.85
2023-05-13T01:02:28.925Z,1008.82
2023-05-13T01:03:28.792Z,1008.82
2023-05-13T01:04:28.766Z,1008.82
2023-05-13T01:05:28.773Z,1008.84
2023-05-13T01:06:28.788Z,1008.83
2023-05-13T01:07:28.798Z,1008.87
2023-05-13T01:08:28.768Z,1008.84
2023-05-13T01:09:28.913Z,1008.86
2023-05-13T01:10:28.764Z,1008.87
2023-05-13T01:11:28.780Z,1008.85
2023-05-13T01:12:30.940Z,1008.87
2023-05-13T01:13:33.918Z,1008.88
2023-05-13T01:14:36.691Z,1008.87
2023-05-13T01:16:28.788Z,1008.86
2023-05-13T01:17:28.810Z,1008.79
2023-05-13T01:18:28.793Z,1008.82
2023-05-13T01:19:28.780Z,1008.8
2023-05-13T01:20:28.765Z,1008.85
2023-05-13T01:21:28.761Z,1008.83
2023-05-13T01:22:28.785Z,1008.84
2023-05-13T01:23:28.773Z,1008.84
2023-05-13T01:24:28.997Z,1008.84
2023-05-13T01:25:28.772Z,1008.81
2023-05-13T01:26:28.761Z,1008.79
2023-05-13T01:27:28.786Z,1008.83
2023-05-13T01:28:28.759Z,1008.81
2023-05-13T01:29:28.774Z,1008.81
2023-05-13T01:30:28.758Z,1008.83
2023-05-13T01:31:28.790Z,1008.82
2023-05-13T01:32:28.799Z,1008.85
2023-05-13T01:33:31.010Z,1008.87
2023-05-13T01:34:33.990Z,1008.88
2023-05-13T01:35:35.054Z,1008.89
2023-05-13T01:37:28.778Z,1008.88
2023-05-13T01:38:28.791Z,1008.87
2023-05-13T01:39:28.772Z,1008.87
2023-05-13T01:40:35.185Z,1008.94
2023-05-13T01:42:28.772Z,1008.9
2023-05-13T01:43:28.788Z,1008.89
2023-05-13T01:44:28.776Z,1008.89
2023-05-13T01:45:28.771Z,1008.85
2023-05-13T01:46:28.792Z,1008.87
2023-05-13T01:47:28.764Z,1008.89
2023-05-13T01:48:28.762Z,1008.87
2023-05-13T01:49:28.771Z,1008.89
2023-05-13T01:50:28.768Z,1008.88
2023-05-13T01:51:28.764Z,1008.86
2023-05-13T01:52:28.770Z,1008.88
2023-05-13T01:53:28.766Z,1008.88
2023-05-13T01:54:32.189Z,1008.87
2023-05-13T01:55:34.719Z,1008.81
2023-05-13T01:56:35.168Z,1008.82
2023-05-13T01:58:28.778Z,1008.86
2023-05-13T01:59:28.757Z,1008.88
2023-05-13T02:00:28.772Z,1008.88
2023-05-13T02:01:28.810Z,1008.87
2023-05-13T02:02:28.784Z,1008.89
2023-05-13T02:03:28.918Z,1008.85
2023-05-13T02:04:28.765Z,1008.86
2023-05-13T02:05:28.762Z,1008.86
2023-05-13T02:06:28.971Z,1008.85
2023-05-13T02:07:28.779Z,1008.86
2023-05-13T02:08:28.868Z,1008.81
2023-05-13T02:09:28.768Z,1008.86
2023-05-13T02:10:28.765Z,1008.85
2023-05-13T02:11:28.790Z,1008.86
2023-05-13T02:12:28.763Z,1008.85
2023-05-13T02:13:28.765Z,1008.86
2023-05-13T02:14:28.841Z,1008.89
2023-05-13T02:15:31.702Z,1008.84
2023-05-13T02:16:34.237Z,1008.88
2023-05-13T02:17:36.029Z,1008.85
2023-05-13T02:19:28.774Z,1008.85
2023-05-13T02:20:28.759Z,1008.87
2023-05-13T02:21:28.763Z,1008.88
2023-05-13T02:22:28.763Z,1008.89
2023-05-13T02:23:28.766Z,1008.87
2023-05-13T02:24:28.778Z,1008.89
2023-05-13T02:25:28.774Z,1008.88
2023-05-13T02:26:28.774Z,1008.91
2023-05-13T02:27:28.779Z,1008.94
2023-05-13T02:28:28.762Z,1008.9
2023-05-13T02:29:28.760Z,1008.88
2023-05-13T02:30:28.794Z,1008.89
2023-05-13T02:31:28.781Z,1008.88
2023-05-13T02:32:28.818Z,1008.91
2023-05-13T02:33:28.773Z,1008.86
2023-05-13T02:34:28.899Z,1008.92
2023-05-13T02:35:28.860Z,1008.87
2023-05-13T02:36:31.880Z,1008.92
2023-05-13T02:37:34.284Z,1008.89
2023-05-13T02:38:36.146Z,1008.85
2023-05-13T02:40:28.885Z,1008.86
2023-05-13T02:41:28.778Z,1008.87
2023-05-13T02:42:28.838Z,1008.82
2023-05-13T02:43:28.771Z,1008.88
2023-05-13T02:44:28.765Z,1008.85
2023-05-13T02:45:28.758Z,1008.88
2023-05-13T02:46:28.872Z,1008.86
2023-05-13T02:47:28.908Z,1008.84
2023-05-13T02:48:28.896Z,1008.85
2023-05-13T02:49:28.810Z,1008.87
2023-05-13T02:50:28.778Z,1008.89
2023-05-13T02:51:28.987Z,1008.86
2023-05-13T02:52:29.028Z,1008.91
2023-05-13T02:53:28.923Z,1008.92
2023-05-13T02:54:28.850Z,1008.97
2023-05-13T02:55:28.989Z,1008.92
2023-05-13T02:56:28.961Z,1008.96
2023-05-13T02:57:31.851Z,1008.93
2023-05-13T02:58:34.322Z,1008.9
2023-05-13T02:59:36.205Z,1008.88
2023-05-13T03:01:29.108Z,1008.88
2023-05-13T03:02:28.811Z,1008.89
2023-05-13T03:03:28.862Z,1008.88
2023-05-13T03:04:28.799Z,1008.85
2023-05-13T03:05:31.813Z,1008.86
2023-05-13T03:07:28.847Z,1008.83
2023-05-13T03:08:28.779Z,1008.82
2023-05-13T03:09:28.785Z,1008.8
2023-05-13T03:10:28.780Z,1008.87
2023-05-13T03:11:28.798Z,1008.87
2023-05-13T03:12:28.770Z,1008.85
2023-05-13T03:13:28.771Z,1008.87
2023-05-13T03:14:28.776Z,1008.86
2023-05-13T03:15:28.776Z,1008.89
2023-05-13T03:16:28.816Z,1008.92
2023-05-13T03:17:29.000Z,1008.94
2023-05-13T03:18:31.955Z,1008.89
2023-05-13T03:19:34.409Z,1008.92
2023-05-13T03:20:36.277Z,1008.89
2023-05-13T03:22:28.774Z,1008.91
2023-05-13T03:23:28.770Z,1008.87
2023-05-13T03:24:28.772Z,1008.9
2023-05-13T03:25:28.847Z,1008.9
2023-05-13T03:26:28.779Z,1008.88
2023-05-13T03:27:28.780Z,1008.9
2023-05-13T03:28:28.790Z,1008.89
2023-05-13T03:29:28.770Z,1008.9
2023-05-13T03:30:28.762Z,1008.83
2023-05-13T03:31:28.878Z,1008.86
2023-05-13T03:32:28.796Z,1008.88
2023-05-13T03:33:28.799Z,1008.88
2023-05-13T03:34:28.774Z,1008.86
2023-05-13T03:35:28.768Z,1008.85
2023-05-13T03:36:28.924Z,1008.87
2023-05-13T03:37:28.853Z,1008.88
2023-05-13T03:38:29.154Z,1008.9
2023-05-13T03:39:32.093Z,1008.9
2023-05-13T03:40:34.592Z,1008.91
2023-05-13T03:41:36.418Z,1008.97
2023-05-13T03:43:29.090Z,1009.04
2023-05-13T03:44:29.080Z,1009.03
2023-05-13T03:45:28.919Z,1009
2023-05-13T03:46:29.188Z,1009.06
2023-05-13T03:47:28.998Z,1009.02
2023-05-13T03:48:29.091Z,1009
2023-05-13T03:49:29.005Z,1008.97
2023-05-13T03:50:28.884Z,1008.96
2023-05-13T03:51:28.759Z,1008.97
2023-05-13T03:52:28.796Z,1008.94
2023-05-13T03:53:28.771Z,1008.96
2023-05-13T03:54:28.773Z,1008.94
2023-05-13T03:55:28.768Z,1008.92
2023-05-13T03:56:28.783Z,1008.93
2023-05-13T03:57:28.802Z,1008.92
2023-05-13T03:58:28.796Z,1008.91
2023-05-13T03:59:28.772Z,1008.91
2023-05-13T04:00:29.246Z,1008.95
2023-05-13T04:01:32.618Z,1008.97
2023-05-13T04:02:35.309Z,1008.95
2023-05-13T04:03:35.162Z,1009.04
2023-05-13T04:04:28.791Z,1009.03
2023-05-13T04:05:28.772Z,1009.07
2023-05-13T04:06:28.768Z,1009.12
2023-05-13T04:07:28.802Z,1009.15
2023-05-13T04:08:28.766Z,1009.24
2023-05-13T04:09:28.768Z,1009.27
2023-05-13T04:10:28.767Z,1009.26
2023-05-13T04:11:28.784Z,1009.22
2023-05-13T04:12:28.790Z,1009.18
2023-05-13T04:13:28.768Z,1009.12
2023-05-13T04:14:28.767Z,1009.1
2023-05-13T04:15:29.089Z,1009.16
2023-05-13T04:16:28.825Z,1009.15
2023-05-13T04:17:28.936Z,1009.14
2023-05-13T04:18:28.806Z,1009.08
2023-05-13T04:19:28.787Z,1009.02
2023-05-13T04:20:28.762Z,1009.04
2023-05-13T04:21:29.316Z,1009.09
2023-05-13T04:22:32.715Z,1009.12
2023-05-13T04:23:35.775Z,1009.13
2023-05-13T04:24:35.235Z,1009.26
2023-05-13T04:25:28.831Z,1009.28
2023-05-13T04:26:28.874Z,1009.15
2023-05-13T04:27:28.913Z,1008.78
2023-05-13T04:28:28.992Z,1008.67
2023-05-13T04:29:28.893Z,1008.52
2023-05-13T04:30:28.976Z,1008.5
2023-05-13T04:31:29.131Z,1008.57
2023-05-13T04:32:28.937Z,1008.68
2023-05-13T04:33:28.990Z,1009
2023-05-13T04:34:29.099Z,1009.09
2023-05-13T04:35:29.049Z,1009.02
2023-05-13T04:36:28.973Z,1009.01
2023-05-13T04:37:28.767Z,1009.07
2023-05-13T04:38:28.802Z,1009.13
2023-05-13T04:39:28.771Z,1009.13
2023-05-13T04:40:28.768Z,1009.16
2023-05-13T04:41:28.773Z,1009.09
2023-05-13T04:42:29.537Z,1009.06
2023-05-13T04:43:32.795Z,1009.05
2023-05-13T04:44:35.895Z,1009.1
2023-05-13T04:45:35.333Z,1009.1
2023-05-13T04:46:28.879Z,1009.08
2023-05-13T04:47:28.819Z,1009.11
2023-05-13T04:48:28.779Z,1009.14
2023-05-13T04:49:28.782Z,1009.08
2023-05-13T04:50:28.767Z,1009.08
2023-05-13T04:51:28.773Z,1009.12
2023-05-13T04:52:28.766Z,1009.16
2023-05-13T04:53:28.825Z,1009.24
2023-05-13T04:54:28.794Z,1009.14
2023-05-13T04:55:29.774Z,1009.13
2023-05-13T04:57:28.783Z,1009.18
2023-05-13T04:58:28.778Z,1009.17
2023-05-13T04:59:28.761Z,1009.14
2023-05-13T05:00:28.770Z,1009.14
2023-05-13T05:01:28.791Z,1009.13
2023-05-13T05:02:28.809Z,1009.16
2023-05-13T05:03:29.798Z,1009.12
2023-05-13T05:04:32.906Z,1009.12
2023-05-13T05:05:36.020Z,1009.11
2023-05-13T05:06:35.425Z,1009.15
2023-05-13T05:07:28.768Z,1009.12
2023-05-13T05:08:28.966Z,1009.14
2023-05-13T05:09:28.840Z,1009.16
2023-05-13T05:10:28.792Z,1009.15
2023-05-13T05:11:28.865Z,1009.14
2023-05-13T05:12:28.791Z,1009.21
2023-05-13T05:13:28.827Z,1009.21
2023-05-13T05:14:28.844Z,1009.25
2023-05-13T05:15:28.882Z,1009.24
2023-05-13T05:16:28.779Z,1009.25
2023-05-13T05:17:28.995Z,1009.3
2023-05-13T05:18:28.989Z,1009.33
2023-05-13T05:19:29.023Z,1009.36
2023-05-13T05:20:29.023Z,1009.35
2023-05-13T05:21:28.768Z,1009.39
2023-05-13T05:22:28.972Z,1009.36
2023-05-13T05:23:28.994Z,1009.36
2023-05-13T05:24:29.594Z,1009.35
2023-05-13T05:25:32.986Z,1009.34
2023-05-13T05:26:35.995Z,1009.32
2023-05-13T05:27:35.383Z,1009.32
2023-05-13T05:28:28.767Z,1009.31
2023-05-13T05:29:28.978Z,1009.32
2023-05-13T05:30:28.774Z,1009.32
2023-05-13T05:31:28.776Z,1009.32
2023-05-13T05:32:28.841Z,1009.32
2023-05-13T05:33:28.769Z,1009.46
2023-05-13T05:34:28.793Z,1009.49
2023-05-13T05:35:28.815Z,1009.48
2023-05-13T05:36:28.766Z,1009.48
2023-05-13T05:37:28.761Z,1009.47
2023-05-13T05:38:28.822Z,1009.44
2023-05-13T05:39:28.784Z,1009.46
2023-05-13T05:40:28.772Z,1009.51
2023-05-13T05:41:28.772Z,1009.52
2023-05-13T05:42:28.767Z,1009.49
2023-05-13T05:43:28.765Z,1009.51
2023-05-13T05:44:28.774Z,1009.53
2023-05-13T05:45:29.674Z,1009.5
2023-05-13T05:46:33.144Z,1009.48
2023-05-13T05:47:36.175Z,1009.43
2023-05-13T05:48:35.527Z,1009.4
2023-05-13T05:49:28.772Z,1009.34
2023-05-13T05:50:28.773Z,1009.33
2023-05-13T05:51:28.765Z,1009.32
2023-05-13T05:52:28.768Z,1009.3
2023-05-13T05:53:28.859Z,1009.25
2023-05-13T05:54:28.754Z,1009.23
2023-05-13T05:55:28.775Z,1009.21
2023-05-13T05:56:28.771Z,1009.16
2023-05-13T05:57:28.774Z,1009.2
2023-05-13T05:58:28.780Z,1009.19
2023-05-13T05:59:28.881Z,1009.15
2023-05-13T06:00:28.861Z,1009.16
2023-05-13T06:01:28.766Z,1009.17
2023-05-13T06:02:28.896Z,1009.17
2023-05-13T06:03:28.841Z,1009.2
2023-05-13T06:04:28.790Z,1009.18
2023-05-13T06:05:28.768Z,1009.2
2023-05-13T06:06:29.938Z,1009.31
2023-05-13T06:07:33.165Z,1009.32
2023-05-13T06:08:36.125Z,1009.33
2023-05-13T06:09:35.622Z,1009.33
2023-05-13T06:10:28.905Z,1009.3
2023-05-13T06:11:28.776Z,1009.33
2023-05-13T06:12:28.754Z,1009.36
2023-05-13T06:13:28.767Z,1009.35
2023-05-13T06:14:28.767Z,1009.34
2023-05-13T06:15:28.779Z,1009.35
2023-05-13T06:16:28.821Z,1009.36
2023-05-13T06:17:28.777Z,1009.37
2023-05-13T06:18:28.821Z,1009.34
2023-05-13T06:19:28.757Z,1009.37
2023-05-13T06:20:28.864Z,1009.37
2023-05-13T06:21:28.877Z,1009.36
2023-05-13T06:22:28.775Z,1009.42
2023-05-13T06:23:28.762Z,1009.39
2023-05-13T06:24:28.851Z,1009.37
2023-05-13T06:25:28.758Z,1009.41
2023-05-13T06:26:28.788Z,1009.41
2023-05-13T06:27:29.791Z,1009.38
2023-05-13T06:28:33.479Z,1009.4
2023-05-13T06:29:36.360Z,1009.38
2023-05-13T06:30:35.788Z,1009.35
2023-05-13T06:31:28.853Z,1009.4
2023-05-13T06:32:28.765Z,1009.42
2023-05-13T06:33:28.832Z,1009.44
2023-05-13T06:34:28.882Z,1009.48
2023-05-13T06:35:28.787Z,1009.48
2023-05-13T06:36:28.782Z,1009.53
2023-05-13T06:37:28.803Z,1009.48
2023-05-13T06:38:28.764Z,1009.51
2023-05-13T06:39:28.767Z,1009.5
2023-05-13T06:40:28.762Z,1009.53
2023-05-13T06:41:28.860Z,1009.51
2023-05-13T06:42:28.939Z,1009.53
2023-05-13T06:43:28.766Z,1009.56
2023-05-13T06:44:28.762Z,1009.55
2023-05-13T06:45:28.771Z,1009.56
2023-05-13T06:46:28.771Z,1009.59
2023-05-13T06:47:28.790Z,1009.59
2023-05-13T06:48:29.854Z,1009.57
2023-05-13T06:49:33.385Z,1009.58
2023-05-13T06:50:36.612Z,1009.52
2023-05-13T06:51:35.842Z,1009.5
2023-05-13T06:52:28.772Z,1009.4
2023-05-13T06:53:28.767Z,1009.42
2023-05-13T06:54:28.774Z,1009.39
2023-05-13T06:55:28.778Z,1009.36
2023-05-13T06:56:28.778Z,1009.37
2023-05-13T06:57:42.702Z,1009.37
2023-05-13T06:59:28.776Z,1009.38
2023-05-13T07:00:28.771Z,1009.39
2023-05-13T07:01:31.886Z,1009.42
2023-05-13T07:03:28.809Z,1009.44
2023-05-13T07:04:28.781Z,1009.48
2023-05-13T07:05:28.758Z,1009.44
2023-05-13T07:06:28.776Z,1009.47
2023-05-13T07:07:28.760Z,1009.42
2023-05-13T07:08:28.765Z,1009.44
2023-05-13T07:09:28.767Z,1009.35
2023-05-13T07:10:30.215Z,1009.39
2023-05-13T07:11:33.748Z,1009.37
2023-05-13T07:12:36.030Z,1009.32
2023-05-13T07:14:28.865Z,1009.35
2023-05-13T07:15:28.760Z,1009.36
2023-05-13T07:16:28.761Z,1009.32
2023-05-13T07:17:28.844Z,1009.35
2023-05-13T07:18:28.880Z,1009.35
2023-05-13T07:19:28.763Z,1009.37
2023-05-13T07:20:28.765Z,1009.36
2023-05-13T07:21:28.778Z,1009.38
2023-05-13T07:22:28.763Z,1009.33
2023-05-13T07:23:28.777Z,1009.38
2023-05-13T07:24:28.762Z,1009.35
2023-05-13T07:25:28.763Z,1009.36
2023-05-13T07:26:28.767Z,1009.32
2023-05-13T07:27:28.763Z,1009.31
2023-05-13T07:28:28.798Z,1009.27
2023-05-13T07:29:31.954Z,1009.29
2023-05-13T07:31:30.302Z,1009.3
2023-05-13T07:32:33.916Z,1009.35
2023-05-13T07:33:36.086Z,1009.36
2023-05-13T07:35:28.813Z,1009.34
2023-05-13T07:36:28.769Z,1009.37
2023-05-13T07:37:28.759Z,1009.34
2023-05-13T07:38:28.773Z,1009.38
2023-05-13T07:39:28.859Z,1009.31
2023-05-13T07:40:28.773Z,1009.31
2023-05-13T07:41:28.816Z,1009.27
2023-05-13T07:42:28.772Z,1009.28
2023-05-13T07:43:28.767Z,1009.25
2023-05-13T07:44:28.772Z,1009.22
2023-05-13T07:45:28.776Z,1009.27
2023-05-13T07:46:28.782Z,1009.27
2023-05-13T07:47:28.776Z,1009.24
2023-05-13T07:48:28.770Z,1009.23
2023-05-13T07:49:28.767Z,1009.21
2023-05-13T07:50:28.963Z,1009.25
2023-05-13T07:51:28.968Z,1009.27
2023-05-13T07:52:30.319Z,1009.29
2023-05-13T07:53:33.962Z,1009.27
2023-05-13T07:54:36.156Z,1009.3
2023-05-13T07:56:28.773Z,1009.29
2023-05-13T07:57:28.828Z,1009.28
2023-05-13T07:58:28.776Z,1009.29
2023-05-13T07:59:28.819Z,1009.29
2023-05-13T08:00:28.793Z,1009.28
2023-05-13T08:01:28.766Z,1009.26
2023-05-13T08:02:28.996Z,1009.23
2023-05-13T08:03:28.852Z,1009.25
2023-05-13T08:04:28.828Z,1009.29
2023-05-13T08:05:28.798Z,1009.27
2023-05-13T08:06:28.806Z,1009.3
2023-05-13T08:07:28.817Z,1009.28
2023-05-13T08:08:28.774Z,1009.28
2023-05-13T08:09:28.763Z,1009.24
2023-05-13T08:10:28.799Z,1009.22
2023-05-13T08:11:28.766Z,1009.22
2023-05-13T08:12:28.778Z,1009.19
2023-05-13T08:13:30.919Z,1009.2
2023-05-13T08:14:33.964Z,1009.17
2023-05-13T08:15:36.200Z,1009.17
2023-05-13T08:17:28.979Z,1009.21
2023-05-13T08:18:28.798Z,1009.23
2023-05-13T08:19:28.761Z,1009.23
2023-05-13T08:20:28.883Z,1009.18
2023-05-13T08:21:28.907Z,1009.22
2023-05-13T08:22:28.774Z,1009.25
2023-05-13T08:23:45.238Z,1009.28
2023-05-13T08:25:28.805Z,1009.32
2023-05-13T08:26:28.787Z,1009.29
2023-05-13T08:27:28.781Z,1009.29
2023-05-13T08:28:28.809Z,1009.29
2023-05-13T08:29:28.762Z,1009.26
2023-05-13T08:30:28.842Z,1009.27
2023-05-13T08:31:28.787Z,1009.25
2023-05-13T08:32:28.776Z,1009.21
2023-05-13T08:33:28.836Z,1009.18
2023-05-13T08:34:30.544Z,1009.17
2023-05-13T08:35:34.041Z,1009.19
2023-05-13T08:36:36.376Z,1009.15
2023-05-13T08:38:28.940Z,1009.17
2023-05-13T08:39:28.766Z,1009.23
2023-05-13T08:40:28.813Z,1009.2
2023-05-13T08:41:28.769Z,1009.16
2023-05-13T08:42:28.955Z,1009.21
2023-05-13T08:43:28.920Z,1009.2
2023-05-13T08:44:28.888Z,1009.19
2023-05-13T08:45:28.849Z,1009.17
2023-05-13T08:46:28.872Z,1009.15
2023-05-13T08:47:28.960Z,1009.16
2023-05-13T08:48:28.873Z,1009.17
2023-05-13T08:49:28.864Z,1009.17
2023-05-13T08:50:28.801Z,1009.15
2023-05-13T08:51:28.924Z,1009.13
2023-05-13T08:52:28.791Z,1009.14
2023-05-13T08:53:28.799Z,1009.14
2023-05-13T08:54:28.984Z,1009.08
2023-05-13T08:55:30.643Z,1009.1
2023-05-13T08:56:34.124Z,1009.11
2023-05-13T08:57:36.390Z,1009.12
2023-05-13T08:59:28.778Z,1009.15
2023-05-13T09:00:28.932Z,1009.16
2023-05-13T09:01:28.917Z,1009.15
2023-05-13T09:02:28.981Z,1009.15
2023-05-13T09:03:29.119Z,1009.14
2023-05-13T09:04:28.794Z,1009.14
2023-05-13T09:05:28.970Z,1009.17
2023-05-13T09:06:28.779Z,1009.12
2023-05-13T09:07:28.945Z,1009.13
2023-05-13T09:08:28.867Z,1009.11
2023-05-13T09:09:29.168Z,1009.14
2023-05-13T09:10:28.787Z,1009.16
2023-05-13T09:11:29.116Z,1009.11
2023-05-13T09:12:28.915Z,1009.12
2023-05-13T09:13:28.869Z,1009.12
2023-05-13T09:14:28.770Z,1009.11
2023-05-13T09:15:28.987Z,1009.1
2023-05-13T09:16:30.868Z,1009.08
2023-05-13T09:17:33.795Z,1009.1
2023-05-13T09:18:36.580Z,1009.14
2023-05-13T09:20:29.061Z,1009.12
2023-05-13T09:21:28.970Z,1009.13
2023-05-13T09:22:28.994Z,1009.11
2023-05-13T09:23:29.108Z,1009.1
2023-05-13T09:24:29.187Z,1009.11
2023-05-13T09:25:29.017Z,1009.15
2023-05-13T09:26:28.768Z,1009.1
2023-05-13T09:27:29.031Z,1009.02
2023-05-13T09:28:29.097Z,1009.03
2023-05-13T09:29:29.009Z,1009
2023-05-13T09:30:29.123Z,1009
2023-05-13T09:31:28.954Z,1009.03
2023-05-13T09:32:29.008Z,1009.01
2023-05-13T09:33:29.073Z,1009
2023-05-13T09:34:29.161Z,1008.99
2023-05-13T09:35:28.770Z,1009.04
2023-05-13T09:36:29.076Z,1009.01
2023-05-13T09:37:30.839Z,1008.98
2023-05-13T09:38:33.830Z,1009.05
2023-05-13T09:39:36.584Z,1009.01
2023-05-13T09:41:29.100Z,1009.01
2023-05-13T09:42:29.216Z,1008.99
2023-05-13T09:43:29.109Z,1008.94
2023-05-13T09:44:29.030Z,1008.95
2023-05-13T09:45:29.238Z,1008.97
2023-05-13T09:46:28.785Z,1008.97
2023-05-13T09:47:29.008Z,1008.95
2023-05-13T09:48:29.177Z,1008.94
2023-05-13T09:49:29.106Z,1008.9
2023-05-13T09:50:29.021Z,1008.92
2023-05-13T09:51:29.115Z,1008.91
2023-05-13T09:52:29.043Z,1008.87
2023-05-13T09:53:29.153Z,1008.95
2023-05-13T09:54:29.767Z,1008.93
2023-05-13T09:55:29.054Z,1008.93
2023-05-13T09:56:28.761Z,1008.87
2023-05-13T09:57:28.769Z,1008.89
2023-05-13T09:58:31.113Z,1008.83
2023-05-13T09:59:33.991Z,1008.93
2023-05-13T10:00:39.160Z,1008.87
2023-05-13T10:02:28.812Z,1008.87
2023-05-13T10:03:28.829Z,1008.84
2023-05-13T10:04:28.907Z,1008.86
2023-05-13T10:05:28.787Z,1008.89
2023-05-13T10:06:28.775Z,1008.85
2023-05-13T10:07:28.795Z,1008.86
2023-05-13T10:08:28.776Z,1008.82
2023-05-13T10:09:28.766Z,1008.82
2023-05-13T10:10:28.767Z,1008.82
2023-05-13T10:11:28.766Z,1008.83
2023-05-13T10:12:28.768Z,1008.79
2023-05-13T10:13:28.777Z,1008.79
2023-05-13T10:14:28.766Z,1008.8
2023-05-13T10:15:28.770Z,1008.77
2023-05-13T10:16:28.796Z,1008.79
2023-05-13T10:17:28.771Z,1008.77
2023-05-13T10:18:28.838Z,1008.77
2023-05-13T10:19:31.050Z,1008.78
2023-05-13T10:20:34.037Z,1008.74
2023-05-13T10:21:35.018Z,1008.74
2023-05-13T10:23:28.766Z,1008.74
2023-05-13T10:24:28.779Z,1008.75
2023-05-13T10:25:28.779Z,1008.72
2023-05-13T10:26:28.761Z,1008.72
2023-05-13T10:27:28.765Z,1008.68
2023-05-13T10:28:28.762Z,1008.69
2023-05-13T10:29:28.761Z,1008.67
2023-05-13T10:30:28.790Z,1008.6
2023-05-13T10:31:28.932Z,1008.66
2023-05-13T10:32:28.803Z,1008.65
2023-05-13T10:33:28.782Z,1008.62
2023-05-13T10:34:28.770Z,1008.58
2023-05-13T10:35:28.762Z,1008.63
2023-05-13T10:36:28.759Z,1008.59
2023-05-13T10:37:28.758Z,1008.61
2023-05-13T10:38:28.780Z,1008.59
2023-05-13T10:39:28.797Z,1008.64
2023-05-13T10:40:28.799Z,1008.57
2023-05-13T10:41:31.670Z,1008.52
2023-05-13T10:42:34.191Z,1008.53
2023-05-13T10:43:35.908Z,1008.52
2023-05-13T10:45:28.758Z,1008.54
2023-05-13T10:46:28.789Z,1008.57
2023-05-13T10:47:28.790Z,1008.56
2023-05-13T10:48:28.832Z,1008.58
2023-05-13T10:49:28.760Z,1008.59
2023-05-13T10:50:28.763Z,1008.5
2023-05-13T10:51:28.767Z,1008.49
2023-05-13T10:52:28.764Z,1008.46
2023-05-13T10:53:28.766Z,1008.46
2023-05-13T10:54:28.772Z,1008.47
2023-05-13T10:55:28.769Z,1008.48
2023-05-13T10:56:28.864Z,1008.47
2023-05-13T10:57:28.766Z,1008.49
2023-05-13T10:58:28.769Z,1008.47
2023-05-13T10:59:28.762Z,1008.43
2023-05-13T11:00:28.754Z,1008.47
2023-05-13T11:01:28.779Z,1008.45
2023-05-13T11:02:31.257Z,1008.42
2023-05-13T11:03:34.452Z,1008.42
2023-05-13T11:04:35.634Z,1008.49
2023-05-13T11:06:28.754Z,1008.43
2023-05-13T11:07:28.774Z,1008.42
2023-05-13T11:08:28.771Z,1008.43
2023-05-13T11:09:28.811Z,1008.4
2023-05-13T11:10:28.773Z,1008.46
2023-05-13T11:11:28.778Z,1008.39
2023-05-13T11:12:28.830Z,1008.42
2023-05-13T11:13:28.760Z,1008.47
2023-05-13T11:14:28.861Z,1008.43
2023-05-13T11:15:28.782Z,1008.42
2023-05-13T11:16:28.790Z,1008.45
2023-05-13T11:17:28.777Z,1008.47
2023-05-13T11:18:28.780Z,1008.43
2023-05-13T11:19:29.053Z,1008.43
2023-05-13T11:20:29.056Z,1008.4
2023-05-13T11:21:28.865Z,1008.41
2023-05-13T11:22:29.004Z,1008.45
2023-05-13T11:23:31.935Z,1008.4
2023-05-13T11:24:34.411Z,1008.44
2023-05-13T11:25:36.200Z,1008.43
2023-05-13T11:27:28.809Z,1008.4
2023-05-13T11:28:28.772Z,1008.33
2023-05-13T11:29:28.764Z,1008.31
2023-05-13T11:30:28.850Z,1008.31
2023-05-13T11:31:28.813Z,1008.3
2023-05-13T11:32:28.809Z,1008.31
2023-05-13T11:33:28.852Z,1008.25
2023-05-13T11:34:28.885Z,1008.3
2023-05-13T11:35:28.780Z,1008.27
2023-05-13T11:36:28.768Z,1008.32
2023-05-13T11:37:28.798Z,1008.24
2023-05-13T11:38:28.766Z,1008.28
2023-05-13T11:39:28.764Z,1008.27
2023-05-13T11:40:28.776Z,1008.2
2023-05-13T11:41:28.771Z,1008.22
2023-05-13T11:42:28.785Z,1008.22
2023-05-13T11:43:29.078Z,1008.2
2023-05-13T11:44:32.126Z,1008.2
2023-05-13T11:45:34.540Z,1008.2
2023-05-13T11:46:36.278Z,1008.13
2023-05-13T11:48:28.772Z,1008.17
2023-05-13T11:49:28.806Z,1008.17
2023-05-13T11:50:28.765Z,1008.17
2023-05-13T11:51:28.857Z,1008.1
2023-05-13T11:52:28.758Z,1008.05
2023-05-13T11:53:28.780Z,1008.08
2023-05-13T11:54:28.796Z,1008.13
2023-05-13T11:55:28.919Z,1008.05
2023-05-13T11:56:28.760Z,1008.1
2023-05-13T11:57:28.776Z,1008.11
2023-05-13T11:58:28.790Z,1008.12
2023-05-13T11:59:41.908Z,1008.12
2023-05-13T12:00:28.764Z,1008.14
2023-05-13T12:01:28.783Z,1008.16
2023-05-13T12:02:28.906Z,1008.14
2023-05-13T12:03:28.809Z,1008.14
2023-05-13T12:04:29.234Z,1008.1
2023-05-13T12:05:32.192Z,1008.08
2023-05-13T12:06:34.668Z,1008.08
2023-05-13T12:07:36.395Z,1008.01
2023-05-13T12:09:28.766Z,1007.98
2023-05-13T12:10:28.763Z,1007.97
2023-05-13T12:11:28.772Z,1008.02
2023-05-13T12:12:28.781Z,1008.03
2023-05-13T12:13:28.779Z,1008.02
2023-05-13T12:14:31.789Z,1008.06
2023-05-13T12:16:28.796Z,1008
2023-05-13T12:17:28.818Z,1008.01
2023-05-13T12:18:28.806Z,1007.98
2023-05-13T12:19:28.801Z,1008
2023-05-13T12:20:28.794Z,1007.99
2023-05-13T12:21:28.775Z,1008.05
2023-05-13T12:22:28.877Z,1008.03
2023-05-13T12:23:28.762Z,1007.95
2023-05-13T12:24:28.780Z,1007.94
2023-05-13T12:25:28.815Z,1007.96
2023-05-13T12:26:32.316Z,1007.97
2023-05-13T12:27:34.762Z,1008
2023-05-13T12:28:36.495Z,1007.98
2023-05-13T12:30:28.792Z,1007.94
2023-05-13T12:31:28.810Z,1007.92
2023-05-13T12:32:28.785Z,1007.95
2023-05-13T12:33:28.792Z,1007.91
2023-05-13T12:34:28.771Z,1007.94
2023-05-13T12:35:28.780Z,1007.91
2023-05-13T12:36:28.809Z,1007.99
2023-05-13T12:37:28.784Z,1007.98
2023-05-13T12:38:28.776Z,1007.98
2023-05-13T12:39:28.796Z,1007.92
2023-05-13T12:40:28.771Z,1007.94
2023-05-13T12:41:28.783Z,1007.92
2023-05-13T12:42:28.790Z,1007.97
2023-05-13T12:43:28.887Z,1007.95